Time;durP1;ratioP1;P1;durP2;ratioP2;P2;SDS_P1;SDS_P2;PMS_P1;PMS_P2;Temp;Humidity;BMP_temperature;BMP_pressure;BME280_temperature;BME280_humidity;BME280_pressure;Samples;Min_cycle;Max_cycle;Signal;HPM_P1;HPM_P2
2023/12/24 00:00:13;;;;;;;16.10;5.83;;;0.00;99.90;;;;;;4190067;28;20402;-62
2023/12/24 00:02:14;;;;;;;14.17;6.80;;;0.00;99.90;;;;;;4190481;28;20273;-62
2023/12/24 00:04:15;;;;;;;18.30;7.80;;;0.00;99.90;;;;;;4192241;28;20676;-60
2023/12/24 00:06:16;;;;;;;10.90;6.10;;;0.00;99.90;;;;;;4191812;28;20648;-61
2023/12/24 00:08:17;;;;;;;9.37;4.53;;;0.00;99.90;;;;;;4192861;28;20273;-62
2023/12/24 00:10:19;;;;;;;6.67;3.70;;;0.00;99.90;;;;;;4189854;28;20315;-61
2023/12/24 00:12:20;;;;;;;7.80;3.57;;;0.00;99.90;;;;;;4191375;28;20726;-62
2023/12/24 00:14:21;;;;;;;8.30;4.93;;;-0.10;99.90;;;;;;4190401;28;20819;-58
2023/12/24 00:16:22;;;;;;;8.13;5.27;;;-0.10;99.90;;;;;;4191572;28;20338;-62
2023/12/24 00:18:23;;;;;;;8.20;4.30;;;-0.10;99.90;;;;;;4191626;28;20262;-62
2023/12/24 00:20:24;;;;;;;8.77;3.93;;;-0.10;99.90;;;;;;4190453;28;20281;-63
2023/12/24 00:22:28;;;;;;;6.43;3.70;;;-0.10;99.90;;;;;;4191888;28;20273;-61
2023/12/24 00:24:29;;;;;;;8.70;3.73;;;-0.10;99.90;;;;;;4194088;28;20673;-63
2023/12/24 00:26:31;;;;;;;6.23;3.70;;;-0.10;99.90;;;;;;4193613;28;20281;-63
2023/12/24 00:28:32;;;;;;;7.17;3.97;;;-0.10;99.90;;;;;;4193983;28;20720;-63
2023/12/24 00:30:34;;;;;;;10.90;4.03;;;-0.20;99.90;;;;;;4195049;28;20749;-61
2023/12/24 00:32:35;;;;;;;6.27;3.73;;;-0.20;99.90;;;;;;4192477;28;20274;-62
2023/12/24 00:34:36;;;;;;;6.03;3.80;;;-0.20;99.90;;;;;;4195337;28;20299;-62
2023/12/24 00:36:37;;;;;;;6.17;3.80;;;-0.20;99.90;;;;;;4194781;28;20813;-62
2023/12/24 00:38:38;;;;;;;8.60;4.63;;;-0.20;99.90;;;;;;4194837;28;20270;-63
2023/12/24 00:40:40;;;;;;;8.63;4.40;;;-0.20;99.90;;;;;;4193721;28;20359;-61
2023/12/24 00:42:41;;;;;;;5.73;3.50;;;-0.20;99.90;;;;;;4193799;28;20282;-62
2023/12/24 00:44:43;;;;;;;8.10;4.10;;;-0.20;99.90;;;;;;4177497;28;20298;-56
2023/12/24 00:46:44;;;;;;;6.20;3.80;;;-0.20;99.90;;;;;;4177720;28;20258;-60
2023/12/24 00:48:46;;;;;;;5.37;3.47;;;-0.20;99.90;;;;;;4193553;28;20265;-62
2023/12/24 00:50:48;;;;;;;9.03;4.70;;;-0.20;99.90;;;;;;4194842;28;20266;-60
2023/12/24 00:52:49;;;;;;;8.10;3.57;;;-0.20;99.90;;;;;;4194208;28;20265;-63
2023/12/24 00:54:50;;;;;;;6.63;3.97;;;-0.20;99.90;;;;;;4193765;28;20285;-63
2023/12/24 00:56:51;;;;;;;8.57;4.07;;;-0.10;99.90;;;;;;4194709;28;20274;-63
2023/12/24 00:58:52;;;;;;;5.73;3.10;;;-0.10;99.90;;;;;;4193713;28;20315;-63
2023/12/24 01:00:54;;;;;;;5.07;3.07;;;-0.20;99.90;;;;;;4193833;28;20269;-62
2023/12/24 01:02:55;;;;;;;4.60;3.00;;;-0.10;99.90;;;;;;4192860;28;20323;-60
2023/12/24 01:04:56;;;;;;;3.87;2.70;;;-0.20;99.90;;;;;;4194622;28;20297;-61
2023/12/24 01:06:57;;;;;;;4.27;2.87;;;-0.20;99.90;;;;;;4194595;28;20688;-61
2023/12/24 01:08:58;;;;;;;7.93;3.77;;;-0.10;99.90;;;;;;4194033;28;20315;-63
2023/12/24 01:10:59;;;;;;;8.60;3.40;;;-0.10;99.90;;;;;;4193623;28;20318;-62
2023/12/24 01:13:00;;;;;;;4.90;3.10;;;-0.10;99.90;;;;;;4194664;28;20258;-63
2023/12/24 01:15:02;;;;;;;6.20;3.50;;;-0.10;99.90;;;;;;4193646;28;20269;-62
2023/12/24 01:17:03;;;;;;;7.10;4.83;;;-0.10;99.90;;;;;;4193663;28;20746;-63
2023/12/24 01:19:04;;;;;;;6.67;3.80;;;-0.10;99.90;;;;;;4194559;28;20266;-63
2023/12/24 01:21:05;;;;;;;7.97;4.13;;;-0.20;99.90;;;;;;4193662;28;20289;-62
2023/12/24 01:23:06;;;;;;;6.93;3.73;;;-0.10;99.90;;;;;;4194417;28;20660;-62
2023/12/24 01:25:11;;;;;;;6.37;4.20;;;-0.10;99.90;;;;;;4194195;28;20285;-63
2023/12/24 01:27:13;;;;;;;7.17;4.17;;;-0.20;99.90;;;;;;4193590;28;20262;-59
2023/12/24 01:29:14;;;;;;;7.60;4.20;;;-0.20;99.90;;;;;;4175689;28;20278;-61
2023/12/24 01:31:15;;;;;;;13.60;4.70;;;-0.20;99.90;;;;;;4194275;28;20277;-59
2023/12/24 01:33:16;;;;;;;9.97;4.80;;;-0.20;99.90;;;;;;4193475;28;20274;-63
2023/12/24 01:35:17;;;;;;;6.87;4.30;;;-0.20;99.90;;;;;;4194519;28;20285;-62
2023/12/24 01:37:18;;;;;;;8.03;4.70;;;-0.20;99.90;;;;;;4194032;28;20261;-63
2023/12/24 01:39:20;;;;;;;8.93;5.47;;;-0.20;99.90;;;;;;4194268;28;20258;-63
2023/12/24 01:41:21;;;;;;;6.80;4.50;;;-0.20;99.90;;;;;;4193198;28;20266;-62
2023/12/24 01:43:22;;;;;;;11.23;5.67;;;-0.20;99.90;;;;;;4194274;28;20258;-58
2023/12/24 01:45:23;;;;;;;8.27;4.60;;;-0.10;99.90;;;;;;4193691;28;20347;-62
2023/12/24 01:47:25;;;;;;;6.47;4.20;;;-0.10;99.90;;;;;;4193851;28;20303;-63
2023/12/24 01:49:26;;;;;;;9.30;5.30;;;-0.10;99.90;;;;;;4192329;28;20270;-61
2023/12/24 01:51:31;;;;;;;6.90;4.43;;;0.00;99.90;;;;;;4193971;28;20254;-62
2023/12/24 01:53:33;;;;;;;10.50;4.80;;;-0.10;99.90;;;;;;4192333;28;20331;-61
2023/12/24 01:55:34;;;;;;;10.17;4.20;;;-0.10;99.90;;;;;;4192728;28;20278;-61
2023/12/24 01:57:36;;;;;;;11.20;4.97;;;0.00;99.90;;;;;;4193565;28;20273;-62
2023/12/24 01:59:39;;;;;;;8.73;4.27;;;0.00;99.90;;;;;;4192218;28;20277;-63
2023/12/24 02:01:41;;;;;;;6.33;4.03;;;0.00;99.90;;;;;;4194026;28;20772;-62
2023/12/24 02:03:42;;;;;;;7.10;4.30;;;0.00;99.90;;;;;;4192742;28;20285;-60
2023/12/24 02:05:50;;;;;;;7.77;3.97;;;0.00;99.90;;;;;;4193183;28;20332;-62
2023/12/24 02:07:52;;;;;;;6.63;4.60;;;0.00;99.90;;;;;;4193847;28;20672;-61
2023/12/24 02:09:53;;;;;;;8.20;4.13;;;0.10;99.90;;;;;;4175670;28;20270;-62
2023/12/24 02:11:55;;;;;;;5.20;3.43;;;0.10;99.90;;;;;;4193349;28;20327;-62
2023/12/24 02:13:56;;;;;;;5.67;3.10;;;0.00;99.90;;;;;;4192845;28;20269;-62
2023/12/24 02:16:00;;;;;;;3.80;2.47;;;0.00;99.90;;;;;;4192777;28;20661;-62
2023/12/24 02:18:02;;;;;;;3.53;2.43;;;0.00;99.90;;;;;;4193482;28;20277;-63
2023/12/24 02:20:04;;;;;;;5.03;2.43;;;0.00;99.90;;;;;;4192375;28;20326;-61
2023/12/24 02:22:05;;;;;;;5.10;2.47;;;0.00;99.90;;;;;;4192669;28;20265;-63
2023/12/24 02:24:07;;;;;;;3.17;2.30;;;0.00;99.90;;;;;;4193516;28;20265;-63
2023/12/24 02:26:30;;;;;;;3.43;2.13;;;0.00;99.90;;;;;;4193201;28;20692;-60
2023/12/24 02:28:41;;;;;;;5.17;3.97;;;0.00;99.90;;;;;;4193301;28;20343;-61
2023/12/24 02:30:47;;;;;;;7.18;3.70;;;0.00;99.90;;;;;;4191714;28;20850;-62
2023/12/24 02:32:53;;;;;;;7.90;3.57;;;0.00;99.90;;;;;;4191763;28;20045;-61
2023/12/24 02:34:59;;;;;;;6.33;3.60;;;0.00;99.90;;;;;;4193401;28;20660;-61
2023/12/24 02:37:01;;;;;;;10.10;4.00;;;0.00;99.90;;;;;;4193672;28;20257;-62
2023/12/24 02:39:02;;;;;;;5.23;3.13;;;0.00;99.90;;;;;;4193241;28;20614;-60
2023/12/24 02:41:04;;;;;;;6.77;4.00;;;0.00;99.90;;;;;;4192121;28;20261;-60
2023/12/24 02:43:05;;;;;;;5.23;3.67;;;0.00;99.90;;;;;;4192876;28;20254;-61
2023/12/24 02:45:06;;;;;;;7.47;3.90;;;0.00;99.90;;;;;;4191657;28;20366;-60
2023/12/24 02:47:08;;;;;;;5.60;3.20;;;0.00;99.90;;;;;;4192994;28;20660;-62
2023/12/24 02:49:09;;;;;;;5.97;2.90;;;0.00;99.90;;;;;;4193160;28;20270;-58
2023/12/24 02:51:10;;;;;;;6.43;3.47;;;-0.10;99.90;;;;;;4192399;28;20277;-61
2023/12/24 02:53:11;;;;;;;3.67;2.83;;;-0.10;99.90;;;;;;4192249;28;20671;-63
2023/12/24 02:55:12;;;;;;;4.63;2.40;;;-0.10;99.90;;;;;;4191536;28;20253;-63
2023/12/24 02:57:14;;;;;;;6.47;3.20;;;-0.10;99.90;;;;;;4193320;28;20326;-63
2023/12/24 02:59:15;;;;;;;4.83;2.50;;;-0.10;99.90;;;;;;4191740;28;20749;-62
2023/12/24 03:01:16;;;;;;;4.27;2.57;;;-0.10;99.90;;;;;;4192404;28;20688;-62
2023/12/24 03:03:17;;;;;;;3.77;2.33;;;-0.10;99.90;;;;;;4191964;28;20282;-61
2023/12/24 03:05:18;;;;;;;3.23;2.20;;;-0.10;99.90;;;;;;4192807;28;20430;-60
2023/12/24 03:07:19;;;;;;;2.33;1.87;;;-0.10;99.90;;;;;;4193221;28;20273;-61
2023/12/24 03:09:20;;;;;;;3.03;2.10;;;-0.20;99.90;;;;;;4192560;28;20323;-62
2023/12/24 03:11:22;;;;;;;3.10;2.27;;;-0.20;99.90;;;;;;4191155;28;20346;-63
2023/12/24 03:13:23;;;;;;;4.33;2.00;;;-0.10;99.90;;;;;;4192821;28;20660;-62
2023/12/24 03:15:24;;;;;;;3.13;1.77;;;-0.10;99.90;;;;;;4191310;28;20346;-61
2023/12/24 03:17:25;;;;;;;3.03;2.13;;;-0.10;99.90;;;;;;4192497;28;20820;-60
2023/12/24 03:19:26;;;;;;;3.30;2.10;;;-0.10;99.90;;;;;;4191813;28;20269;-60
2023/12/24 03:21:28;;;;;;;3.67;1.80;;;-0.10;99.90;;;;;;4191718;28;20269;-62
2023/12/24 03:23:29;;;;;;;2.00;1.53;;;-0.10;99.90;;;;;;4192485;28;20262;-63
2023/12/24 03:25:30;;;;;;;2.60;1.57;;;-0.10;99.90;;;;;;4190955;28;20339;-63
2023/12/24 03:27:31;;;;;;;2.23;1.50;;;-0.10;99.90;;;;;;4191552;28;20311;-61
2023/12/24 03:29:32;;;;;;;1.23;0.73;;;0.00;99.90;;;;;;4192287;28;20253;-62
2023/12/24 03:31:34;;;;;;;1.07;0.87;;;0.00;99.90;;;;;;4192324;28;20261;-61
2023/12/24 03:33:35;;;;;;;1.13;0.73;;;0.00;99.90;;;;;;4191539;28;21111;-61
2023/12/24 03:35:36;;;;;;;2.10;0.90;;;0.00;99.90;;;;;;4191844;28;20759;-62
2023/12/24 03:37:37;;;;;;;2.97;0.67;;;0.00;99.90;;;;;;4192907;28;20274;-62
2023/12/24 03:39:38;;;;;;;1.13;0.70;;;0.00;99.90;;;;;;4191605;28;20261;-61
2023/12/24 03:41:39;;;;;;;1.27;0.70;;;0.10;99.90;;;;;;4191323;28;20661;-58
2023/12/24 03:43:40;;;;;;;0.80;0.77;;;0.10;99.90;;;;;;4191226;28;21087;-60
2023/12/24 03:45:42;;;;;;;2.47;1.20;;;0.10;99.90;;;;;;4191693;28;20692;-59
2023/12/24 03:47:44;;;;;;;1.30;1.20;;;0.10;99.90;;;;;;4192257;28;20258;-62
2023/12/24 03:49:45;;;;;;;2.17;1.37;;;0.10;99.90;;;;;;4192622;28;20277;-60
2023/12/24 03:51:47;;;;;;;1.83;1.10;;;0.20;99.90;;;;;;4192115;28;20790;-62
2023/12/24 03:53:48;;;;;;;0.90;0.77;;;0.20;99.90;;;;;;4191209;28;20759;-61
2023/12/24 03:55:49;;;;;;;1.23;0.90;;;0.20;99.90;;;;;;4192127;28;20273;-62
2023/12/24 03:57:50;;;;;;;2.03;1.10;;;0.20;99.90;;;;;;4193902;28;20331;-62
2023/12/24 03:59:52;;;;;;;2.73;0.80;;;0.20;99.90;;;;;;4195443;28;20269;-61
2023/12/24 04:01:53;;;;;;;2.47;1.03;;;0.30;99.90;;;;;;4194512;28;20273;-62
2023/12/24 04:03:54;;;;;;;1.50;0.83;;;0.30;99.90;;;;;;4195451;28;20269;-62
2023/12/24 04:05:55;;;;;;;0.93;0.70;;;0.20;99.90;;;;;;4195233;28;20622;-61
2023/12/24 04:07:56;;;;;;;1.47;1.00;;;0.30;99.90;;;;;;4195233;28;20830;-62
2023/12/24 04:09:57;;;;;;;1.10;0.63;;;0.30;99.90;;;;;;4195556;28;20336;-61
2023/12/24 04:11:59;;;;;;;2.33;0.87;;;0.30;99.90;;;;;;4194831;28;20257;-61
2023/12/24 04:14:00;;;;;;;3.20;0.90;;;0.30;99.90;;;;;;4195369;28;21103;-61
2023/12/24 04:16:01;;;;;;;3.40;0.97;;;0.30;99.90;;;;;;4195637;28;20265;-61
2023/12/24 04:18:03;;;;;;;2.27;0.67;;;0.30;99.90;;;;;;4193857;28;20257;-61
2023/12/24 04:20:05;;;;;;;0.63;0.50;;;0.30;99.90;;;;;;4195514;28;20265;-62
2023/12/24 04:22:07;;;;;;;2.03;0.73;;;0.30;99.90;;;;;;4193376;28;20358;-62
2023/12/24 04:24:08;;;;;;;1.40;0.70;;;0.30;99.90;;;;;;4194837;28;20270;-61
2023/12/24 04:26:09;;;;;;;2.47;0.90;;;0.30;99.90;;;;;;4193922;28;20397;-62
2023/12/24 04:28:10;;;;;;;6.90;3.07;;;0.30;99.90;;;;;;4194097;28;20273;-62
2023/12/24 04:30:12;;;;;;;1.70;1.33;;;0.30;99.90;;;;;;4194977;28;20250;-61
2023/12/24 04:32:13;;;;;;;2.40;1.30;;;0.30;99.90;;;;;;4194673;28;20261;-62
2023/12/24 04:34:14;;;;;;;2.27;1.47;;;0.30;99.90;;;;;;4194375;28;20684;-62
2023/12/24 04:36:19;;;;;;;1.87;1.03;;;0.20;99.90;;;;;;4194415;28;20881;-63
2023/12/24 04:38:20;;;;;;;2.10;1.50;;;0.20;99.90;;;;;;4194842;28;20765;-61
2023/12/24 04:40:22;;;;;;;2.37;1.40;;;0.20;99.90;;;;;;4195125;28;20315;-63
2023/12/24 04:42:24;;;;;;;1.87;1.03;;;0.20;99.90;;;;;;4194500;28;20307;-63
2023/12/24 04:44:25;;;;;;;1.70;1.03;;;0.10;99.90;;;;;;4188919;28;20282;-63
2023/12/24 04:46:26;;;;;;;1.93;1.30;;;0.10;99.90;;;;;;4177680;28;20340;-61
2023/12/24 04:48:27;;;;;;;1.33;1.10;;;0.10;99.90;;;;;;4177917;28;20278;-62
2023/12/24 04:50:28;;;;;;;1.17;0.93;;;0.10;99.90;;;;;;4178522;28;20757;-62
2023/12/24 04:52:35;;;;;;;1.90;1.00;;;0.10;99.90;;;;;;4178291;28;20319;-61
2023/12/24 04:54:37;;;;;;;1.27;0.90;;;0.10;99.90;;;;;;4177866;28;20824;-58
2023/12/24 04:56:38;;;;;;;2.13;1.13;;;0.10;99.90;;;;;;4177366;28;20271;-63
2023/12/24 04:58:39;;;;;;;2.07;1.00;;;0.10;99.90;;;;;;4177787;28;20312;-62
2023/12/24 05:00:40;;;;;;;1.47;1.00;;;0.10;99.90;;;;;;4189908;28;20278;-61
2023/12/24 05:02:41;;;;;;;1.47;1.33;;;0.10;99.90;;;;;;4193846;28;20273;-61
2023/12/24 05:04:43;;;;;;;1.83;1.23;;;0.10;99.90;;;;;;4194573;28;20332;-63
2023/12/24 05:06:44;;;;;;;1.20;0.87;;;0.10;99.90;;;;;;4193839;28;20297;-63
2023/12/24 05:08:46;;;;;;;1.10;0.70;;;0.10;99.90;;;;;;4193620;28;20273;-61
2023/12/24 05:10:47;;;;;;;1.20;1.07;;;0.10;99.90;;;;;;4194002;28;20270;-62
2023/12/24 05:12:49;;;;;;;2.00;1.20;;;0.20;99.90;;;;;;4193898;28;20741;-62
2023/12/24 05:14:50;;;;;;;1.13;0.87;;;0.20;99.90;;;;;;4193997;28;20668;-62
2023/12/24 05:16:52;;;;;;;1.77;0.97;;;0.20;99.90;;;;;;4194228;28;20299;-63
2023/12/24 05:18:53;;;;;;;1.33;0.87;;;0.20;99.90;;;;;;4193416;28;20299;-61
2023/12/24 05:20:54;;;;;;;1.90;1.30;;;0.20;99.90;;;;;;4175823;28;20355;-61
2023/12/24 05:22:56;;;;;;;1.73;0.80;;;0.20;99.90;;;;;;4194253;28;20664;-61
2023/12/24 05:24:57;;;;;;;1.33;0.70;;;0.20;99.90;;;;;;4194479;28;20327;-62
2023/12/24 05:26:59;;;;;;;1.70;1.00;;;0.20;99.90;;;;;;4192917;28;20298;-62
2023/12/24 05:29:00;;;;;;;1.03;1.00;;;0.20;99.90;;;;;;4194551;28;20315;-63
2023/12/24 05:31:01;;;;;;;1.27;0.60;;;0.20;99.90;;;;;;4192844;28;20319;-62
2023/12/24 05:33:02;;;;;;;1.37;0.80;;;0.20;99.90;;;;;;4175890;28;20379;-60
2023/12/24 05:35:05;;;;;;;0.80;0.73;;;0.20;99.90;;;;;;4193056;28;20331;-63
2023/12/24 05:37:07;;;;;;;1.53;1.00;;;0.20;99.90;;;;;;4194149;28;20721;-54
2023/12/24 05:39:11;;;;;;;1.93;0.90;;;0.20;99.90;;;;;;4194400;28;20262;-60
2023/12/24 05:41:15;;;;;;;1.67;0.97;;;0.20;99.90;;;;;;4193464;28;20266;-63
2023/12/24 05:43:16;;;;;;;1.57;0.90;;;0.20;99.90;;;;;;4194081;28;20246;-57
2023/12/24 05:45:17;;;;;;;1.67;0.97;;;0.20;99.90;;;;;;4194295;28;20257;-61
2023/12/24 05:47:18;;;;;;;1.17;1.00;;;0.20;99.90;;;;;;4192523;28;20684;-63
2023/12/24 05:49:20;;;;;;;4.33;1.37;;;0.30;99.90;;;;;;4194103;28;20699;-63
2023/12/24 05:51:21;;;;;;;3.50;1.70;;;0.20;99.90;;;;;;4192376;28;20307;-62
2023/12/24 05:53:22;;;;;;;3.73;1.80;;;0.20;99.90;;;;;;4193983;28;20611;-62
2023/12/24 05:55:23;;;;;;;4.53;2.20;;;0.20;99.90;;;;;;4194083;28;20595;-63
2023/12/24 05:57:24;;;;;;;4.40;1.73;;;0.20;99.90;;;;;;4192349;28;20307;-63
2023/12/24 05:59:25;;;;;;;4.10;2.43;;;0.10;99.90;;;;;;4193202;28;20315;-60
2023/12/24 06:01:26;;;;;;;5.73;2.60;;;0.10;99.90;;;;;;4192220;28;20334;-62
2023/12/24 06:03:28;;;;;;;4.50;2.57;;;0.10;99.90;;;;;;4192467;28;20308;-61
2023/12/24 06:05:29;;;;;;;5.20;3.00;;;0.20;99.90;;;;;;4193511;28;20343;-61
2023/12/24 06:07:31;;;;;;;8.50;3.77;;;0.20;99.90;;;;;;4192022;28;20301;-62
2023/12/24 06:09:32;;;;;;;4.67;2.87;;;0.20;99.90;;;;;;4192797;28;20322;-61
2023/12/24 06:11:33;;;;;;;6.33;3.83;;;0.20;99.90;;;;;;4192590;28;20274;-63
2023/12/24 06:13:34;;;;;;;8.43;3.50;;;0.20;99.90;;;;;;4192778;28;20331;-62
2023/12/24 06:15:35;;;;;;;7.10;4.20;;;0.30;99.90;;;;;;4192920;28;20265;-57
2023/12/24 06:17:37;;;;;;;8.40;3.97;;;0.30;99.90;;;;;;4193428;28;20265;-63
2023/12/24 06:19:38;;;;;;;8.03;4.00;;;0.30;99.90;;;;;;4191924;28;20678;-63
2023/12/24 06:21:39;;;;;;;7.87;4.20;;;0.20;99.90;;;;;;4193011;28;20261;-62
2023/12/24 06:23:40;;;;;;;11.07;4.43;;;0.30;99.90;;;;;;4193278;28;20261;-59
2023/12/24 06:25:42;;;;;;;7.73;4.20;;;0.30;99.90;;;;;;4192525;28;20266;-61
2023/12/24 06:27:43;;;;;;;11.63;4.30;;;0.30;99.90;;;;;;4192992;28;20273;-61
2023/12/24 06:29:44;;;;;;;10.07;4.73;;;0.30;99.90;;;;;;4193344;28;20274;-61
2023/12/24 06:31:45;;;;;;;10.87;5.20;;;0.30;99.90;;;;;;4192355;28;20742;-63
2023/12/24 06:33:46;;;;;;;12.87;5.10;;;0.30;99.90;;;;;;4192338;28;20315;-60
2023/12/24 06:35:48;;;;;;;11.07;4.83;;;0.30;99.90;;;;;;4192328;28;20277;-60
2023/12/24 06:37:49;;;;;;;11.23;5.00;;;0.30;99.90;;;;;;4193711;28;20674;-62
2023/12/24 06:39:50;;;;;;;15.30;5.17;;;0.40;99.90;;;;;;4192164;28;20350;-63
2023/12/24 06:41:53;;;;;;;10.40;4.87;;;0.30;99.90;;;;;;4192061;28;20273;-61
2023/12/24 06:43:54;;;;;;;11.50;4.63;;;0.40;99.90;;;;;;4192583;28;20608;-62
2023/12/24 06:45:55;;;;;;;9.93;5.43;;;0.40;99.90;;;;;;4192729;28;20342;-62
2023/12/24 06:47:57;;;;;;;8.00;4.67;;;0.40;99.90;;;;;;4190581;28;20269;-57
2023/12/24 06:49:58;;;;;;;10.80;4.50;;;0.50;99.90;;;;;;4192923;28;20323;-60
2023/12/24 06:51:59;;;;;;;17.83;4.90;;;0.40;99.90;;;;;;4193051;28;20319;-62
2023/12/24 06:54:00;;;;;;;11.70;5.00;;;0.50;99.90;;;;;;4190927;28;21189;-62
2023/12/24 06:56:02;;;;;;;13.17;5.40;;;0.50;99.90;;;;;;4192870;28;20318;-61
2023/12/24 06:58:03;;;;;;;10.97;4.70;;;0.50;99.90;;;;;;4191426;28;20645;-62
2023/12/24 07:00:05;;;;;;;16.10;6.67;;;0.50;99.90;;;;;;4192582;28;20664;-62
2023/12/24 07:02:07;;;;;;;11.00;5.50;;;0.50;99.90;;;;;;4191492;28;20270;-62
2023/12/24 07:04:09;;;;;;;11.67;4.63;;;0.40;99.90;;;;;;4192755;28;20335;-62
2023/12/24 07:06:10;;;;;;;6.37;4.77;;;0.40;99.90;;;;;;4173700;28;20305;-62
2023/12/24 07:08:12;;;;;;;10.13;5.67;;;0.40;99.90;;;;;;4191603;28;20327;-61
2023/12/24 07:10:13;;;;;;;9.93;5.83;;;0.40;99.90;;;;;;4191438;28;20338;-62
2023/12/24 07:12:14;;;;;;;9.33;4.57;;;0.30;99.90;;;;;;4191582;28;20607;-64
2023/12/24 07:14:16;;;;;;;7.20;4.63;;;0.30;99.90;;;;;;4190416;28;20342;-62
2023/12/24 07:16:17;;;;;;;10.17;5.00;;;0.20;99.90;;;;;;4191926;28;20277;-62
2023/12/24 07:18:18;;;;;;;14.70;5.00;;;0.20;99.90;;;;;;4191594;28;20285;-63
2023/12/24 07:20:20;;;;;;;12.70;5.30;;;0.20;99.90;;;;;;4192597;28;20281;-61
2023/12/24 07:22:21;;;;;;;10.37;5.20;;;0.20;99.90;;;;;;4191743;28;20281;-61
2023/12/24 07:24:22;;;;;;;9.57;5.50;;;0.20;99.90;;;;;;4192233;28;20765;-62
2023/12/24 07:26:23;;;;;;;9.30;4.70;;;0.20;99.90;;;;;;4191887;28;20296;-63
2023/12/24 07:28:24;;;;;;;10.17;5.50;;;0.30;99.90;;;;;;4192181;28;20594;-62
2023/12/24 07:30:25;;;;;;;10.87;5.40;;;0.30;99.90;;;;;;4192768;28;20335;-59
2023/12/24 07:32:26;;;;;;;12.27;5.80;;;0.40;99.90;;;;;;4191902;28;20318;-57
2023/12/24 07:34:29;;;;;;;11.47;7.30;;;0.50;99.90;;;;;;4192810;28;20810;-61
2023/12/24 07:36:32;;;;;;;12.90;7.23;;;0.50;99.90;;;;;;4191122;28;20262;-60
2023/12/24 07:38:34;;;;;;;15.33;8.30;;;0.60;99.90;;;;;;4191582;28;20680;-60
2023/12/24 07:40:35;;;;;;;14.90;8.20;;;0.60;99.90;;;;;;4189417;28;20323;-60
2023/12/24 07:42:38;;;;;;;12.73;7.57;;;0.60;99.90;;;;;;4185016;28;20331;-64
2023/12/24 07:44:39;;;;;;;19.23;10.50;;;0.60;99.90;;;;;;4190729;28;20475;-60
2023/12/24 07:46:41;;;;;;;15.93;9.43;;;0.60;99.90;;;;;;4191452;28;20301;-56
2023/12/24 07:48:42;;;;;;;17.60;10.27;;;0.70;99.90;;;;;;4191830;28;20326;-62
2023/12/24 07:50:43;;;;;;;16.30;9.10;;;0.60;99.90;;;;;;4191923;28;20307;-62
2023/12/24 07:52:44;;;;;;;17.13;9.87;;;0.60;99.90;;;;;;4192491;28;20323;-61
2023/12/24 07:54:45;;;;;;;12.80;7.90;;;0.60;99.90;;;;;;4191556;28;20261;-59
2023/12/24 07:56:47;;;;;;;17.03;9.27;;;0.60;99.90;;;;;;4191133;28;20323;-56
2023/12/24 07:58:48;;;;;;;14.73;9.60;;;0.60;99.90;;;;;;4190996;28;20269;-59
2023/12/24 08:00:50;;;;;;;9.77;6.97;;;0.70;99.90;;;;;;4191675;28;20288;-56
2023/12/24 08:02:51;;;;;;;10.13;7.07;;;0.60;99.90;;;;;;4191223;28;20692;-60
2023/12/24 08:04:55;;;;;;;13.87;9.77;;;0.70;99.90;;;;;;4191090;28;20269;-59
2023/12/24 08:06:56;;;;;;;18.50;10.30;;;0.80;99.90;;;;;;4189949;28;20293;-59
2023/12/24 08:08:58;;;;;;;15.10;8.80;;;0.70;99.90;;;;;;4174255;28;20278;-58
2023/12/24 08:10:59;;;;;;;12.93;9.03;;;0.80;99.90;;;;;;4173187;28;20282;-59
2023/12/24 08:13:00;;;;;;;13.73;7.30;;;0.80;99.90;;;;;;4192383;28;20315;-59
2023/12/24 08:15:02;;;;;;;13.87;7.43;;;0.90;99.90;;;;;;4191348;28;20741;-59
2023/12/24 08:17:03;;;;;;;12.83;8.80;;;0.90;99.90;;;;;;4173411;28;20274;-59
2023/12/24 08:19:05;;;;;;;13.50;8.43;;;1.00;99.90;;;;;;4191681;28;20277;-57
2023/12/24 08:21:10;;;;;;;23.43;12.67;;;1.20;99.90;;;;;;4191164;28;20384;-61
2023/12/24 08:23:11;;;;;;;13.07;7.67;;;1.20;99.90;;;;;;4190549;28;20677;-60
2023/12/24 08:25:12;;;;;;;12.20;8.13;;;1.20;99.90;;;;;;4191331;28;20335;-60
2023/12/24 08:27:13;;;;;;;13.90;7.93;;;1.30;99.90;;;;;;4192045;28;20289;-61
2023/12/24 08:29:15;;;;;;;12.10;8.03;;;1.40;99.90;;;;;;4191121;28;20270;-60
2023/12/24 08:31:16;;;;;;;10.73;7.97;;;1.40;99.90;;;;;;4192111;28;20687;-60
2023/12/24 08:33:17;;;;;;;15.90;7.97;;;1.50;99.90;;;;;;4190534;28;20354;-60
2023/12/24 08:35:18;;;;;;;13.03;7.97;;;1.50;99.90;;;;;;4191641;28;20290;-60
2023/12/24 08:37:20;;;;;;;17.73;8.50;;;1.40;99.90;;;;;;4190753;28;20374;-60
2023/12/24 08:39:21;;;;;;;14.60;7.90;;;1.40;99.90;;;;;;4191530;28;20822;-57
2023/12/24 08:41:22;;;;;;;13.73;7.83;;;1.30;99.90;;;;;;4190678;28;20312;-59
2023/12/24 08:43:24;;;;;;;19.60;11.60;;;1.30;99.90;;;;;;4191788;28;20273;-61
2023/12/24 08:45:25;;;;;;;14.37;9.73;;;1.30;99.90;;;;;;4194168;28;20258;-61
2023/12/24 08:47:26;;;;;;;12.67;8.50;;;1.40;99.90;;;;;;4194659;28;20297;-61
2023/12/24 08:49:27;;;;;;;26.83;8.50;;;1.30;99.90;;;;;;4193532;28;20684;-61
2023/12/24 08:51:28;;;;;;;16.67;9.47;;;1.40;99.90;;;;;;4194155;28;20282;-60
2023/12/24 08:53:30;;;;;;;18.57;10.93;;;1.30;99.90;;;;;;4193644;28;20289;-61
2023/12/24 08:55:31;;;;;;;14.27;9.03;;;1.30;99.90;;;;;;4193876;28;20632;-60
2023/12/24 08:57:32;;;;;;;15.77;8.57;;;1.30;99.90;;;;;;4194244;28;20269;-59
2023/12/24 08:59:33;;;;;;;13.73;10.10;;;1.30;99.90;;;;;;4194581;28;20326;-57
2023/12/24 09:01:40;;;;;;;22.93;10.30;;;1.20;99.90;;;;;;4194293;28;20952;-62
2023/12/24 09:03:41;;;;;;;20.43;12.33;;;1.20;99.90;;;;;;4193418;28;20327;-61
2023/12/24 09:05:42;;;;;;;31.50;16.33;;;1.20;99.90;;;;;;4193895;28;20315;-61
2023/12/24 09:07:43;;;;;;;28.27;16.13;;;1.10;99.90;;;;;;4193959;28;20285;-62
2023/12/24 09:09:44;;;;;;;27.03;15.97;;;1.10;99.90;;;;;;4194831;28;20311;-61
2023/12/24 09:11:47;;;;;;;28.50;15.40;;;1.10;99.90;;;;;;4193591;28;20265;-61
2023/12/24 09:13:48;;;;;;;29.87;15.17;;;1.10;99.90;;;;;;4194177;28;20277;-61
2023/12/24 09:15:49;;;;;;;21.40;12.63;;;1.10;99.90;;;;;;4194071;28;20310;-61
2023/12/24 09:17:51;;;;;;;21.83;12.40;;;1.10;99.90;;;;;;4194352;28;20257;-61
2023/12/24 09:19:52;;;;;;;19.30;11.63;;;1.10;99.90;;;;;;4193647;28;20803;-61
2023/12/24 09:21:53;;;;;;;17.47;10.90;;;1.10;99.90;;;;;;4193492;28;20269;-60
2023/12/24 09:23:55;;;;;;;17.43;11.10;;;1.10;99.90;;;;;;4193631;28;20327;-61
2023/12/24 09:25:56;;;;;;;21.23;11.10;;;1.20;99.90;;;;;;4193935;28;20269;-61
2023/12/24 09:27:57;;;;;;;20.97;11.13;;;1.10;99.90;;;;;;4193605;28;20384;-61
2023/12/24 09:30:04;;;;;;;21.30;10.63;;;1.20;99.90;;;;;;4192906;28;20273;-59
2023/12/24 09:32:05;;;;;;;16.70;9.97;;;1.20;99.90;;;;;;4193526;28;20417;-60
2023/12/24 09:34:08;;;;;;;21.30;10.27;;;1.20;99.90;;;;;;4193786;28;20322;-59
2023/12/24 09:36:09;;;;;;;22.07;12.23;;;1.30;99.90;;;;;;4193583;28;20266;-61
2023/12/24 09:38:13;;;;;;;19.47;11.87;;;1.30;99.90;;;;;;4194021;28;20262;-60
2023/12/24 09:40:14;;;;;;;28.97;15.53;;;1.40;99.90;;;;;;4194162;28;20319;-61
2023/12/24 09:42:16;;;;;;;29.20;16.00;;;1.40;99.90;;;;;;4192588;28;20277;-60
2023/12/24 09:44:17;;;;;;;21.20;13.60;;;1.50;99.90;;;;;;4194171;28;20706;-60
2023/12/24 09:46:18;;;;;;;16.93;9.73;;;1.40;99.90;;;;;;4192804;28;20266;-60
2023/12/24 09:48:20;;;;;;;24.40;13.30;;;1.50;99.90;;;;;;4192767;28;20331;-60
2023/12/24 09:50:21;;;;;;;20.47;13.23;;;1.40;99.90;;;;;;4192067;28;20838;-60
2023/12/24 09:52:22;;;;;;;23.17;13.83;;;1.40;99.90;;;;;;4193090;28;20341;-61
2023/12/24 09:54:24;;;;;;;12.60;7.40;;;1.40;99.90;;;;;;4192565;28;20273;-62
2023/12/24 09:56:25;;;;;;;15.47;9.70;;;1.50;99.90;;;;;;4193021;28;20331;-61
2023/12/24 09:58:26;;;;;;;14.27;8.80;;;1.50;99.90;;;;;;4192482;28;20339;-61
2023/12/24 10:00:27;;;;;;;15.43;8.80;;;1.50;99.90;;;;;;4193581;28;20265;-61
2023/12/24 10:02:28;;;;;;;15.73;8.70;;;1.50;99.90;;;;;;4192289;28;20319;-62
2023/12/24 10:04:30;;;;;;;17.57;10.80;;;1.50;99.90;;;;;;4193218;28;20269;-61
2023/12/24 10:06:31;;;;;;;21.03;10.03;;;1.60;99.90;;;;;;4193357;28;20270;-61
2023/12/24 10:08:32;;;;;;;19.07;12.67;;;1.60;99.90;;;;;;4193017;28;20687;-61
2023/12/24 10:10:34;;;;;;;21.87;12.40;;;1.50;99.90;;;;;;4193845;28;20269;-62
2023/12/24 10:12:36;;;;;;;20.47;11.40;;;1.40;99.90;;;;;;4192555;28;20266;-62
2023/12/24 10:14:39;;;;;;;17.53;10.50;;;1.40;99.90;;;;;;4192487;28;20660;-61
2023/12/24 10:16:46;;;;;;;20.83;10.97;;;1.50;99.90;;;;;;4192971;28;20355;-61
2023/12/24 10:18:53;;;;;;;23.47;13.10;;;1.50;99.90;;;;;;4192316;28;20391;-61
2023/12/24 10:21:04;;;;;;;21.80;12.07;;;1.50;99.90;;;;;;4192103;28;20335;-61
2023/12/24 10:23:08;;;;;;;21.52;12.05;;;1.50;99.90;;;;;;4193382;28;20319;-61
2023/12/24 10:25:15;;;;;;;20.50;11.37;;;1.50;99.90;;;;;;4192819;28;20082;-60
2023/12/24 10:27:16;;;;;;;17.23;10.80;;;1.40;99.90;;;;;;4192628;28;20339;-62
2023/12/24 10:29:23;;;;;;;12.83;9.53;;;1.40;99.90;;;;;;4192295;28;20269;-65
2023/12/24 10:31:24;;;;;;;18.03;9.57;;;1.30;99.90;;;;;;4192668;28;20335;-60
2023/12/24 10:33:26;;;;;;;11.67;7.03;;;1.40;99.90;;;;;;4192986;28;20273;-61
2023/12/24 10:35:27;;;;;;;14.33;8.60;;;1.30;99.90;;;;;;4191015;28;20315;-61